Time;durP1;ratioP1;P1;durP2;ratioP2;P2;SDS_P1;SDS_P2;PMS_P1;PMS_P2;Temp;Humidity;BMP_temperature;BMP_pressure;BME280_temperature;BME280_humidity;BME280_pressure;Samples;Min_cycle;Max_cycle;Signal;HPM_P1;HPM_P2
2022/10/28 00:01:25;;;;;;;39.80;29.00;;;;;;;10.06;78.05;101443.77;100773;1293;141199;-79
2022/10/28 00:03:56;;;;;;;39.30;29.80;;;;;;;9.99;78.24;101440.77;100967;1309;108119;-79
2022/10/28 00:06:35;;;;;;;38.50;28.20;;;;;;;9.99;78.76;101446.99;100863;1293;97960;-79
2022/10/28 00:09:04;;;;;;;41.70;27.90;;;;;;;9.99;78.80;101442.20;101050;1292;107427;-81
2022/10/28 00:11:37;;;;;;;40.50;30.30;;;;;;;9.98;78.98;101445.21;101168;1289;96852;-79
2022/10/28 00:14:06;;;;;;;37.50;28.60;;;;;;;9.97;79.17;101445.76;100673;1290;183898;-80
2022/10/28 00:16:36;;;;;;;36.40;26.10;;;;;;;9.99;79.59;101442.90;101195;1287;108129;-79
2022/10/28 00:19:06;;;;;;;37.20;26.40;;;;;;;9.98;80.22;101444.51;101168;1304;139662;-79
2022/10/28 00:21:37;;;;;;;33.90;24.80;;;;;;;9.98;80.32;101442.56;101069;1297;107527;-80
2022/10/28 00:24:06;;;;;;;32.80;23.70;;;;;;;9.96;80.58;101440.44;100754;1290;95670;-79
2022/10/28 00:26:36;;;;;;;32.30;23.40;;;;;;;9.94;80.90;101437.43;100628;1301;138673;-81
2022/10/28 00:29:11;;;;;;;32.70;23.20;;;;;;;9.95;81.18;101437.08;101168;1289;108821;-82
2022/10/28 00:31:42;;;;;;;29.90;22.20;;;;;;;9.99;81.81;101437.40;101272;1293;139475;-80
2022/10/28 00:34:14;;;;;;;29.80;21.20;;;;;;;10.15;81.84;101432.85;101174;1293;105558;-80
2022/10/28 00:36:44;;;;;;;28.70;21.70;;;;;;;10.30;80.96;101430.59;100952;1293;139206;-81
2022/10/28 00:39:18;;;;;;;30.50;21.50;;;;;;;10.30;80.44;101422.42;101274;1311;96692;-80
2022/10/28 00:41:49;;;;;;;27.90;19.70;;;;;;;10.31;80.53;101416.21;101192;1299;107966;-82
2022/10/28 00:44:36;;;;;;;28.40;21.40;;;;;;;10.37;81.10;101417.95;100884;1290;139295;-81
2022/10/28 00:47:16;;;;;;;29.50;20.80;;;;;;;10.52;80.40;101418.19;101226;1293;106578;-81
2022/10/28 00:49:48;;;;;;;33.00;21.60;;;;;;;10.52;80.21;101416.23;101236;1292;139989;-81
2022/10/28 00:52:21;;;;;;;26.70;21.70;;;;;;;10.59;80.57;101412.79;101274;1313;95702;-78
2022/10/28 00:54:51;;;;;;;30.60;23.10;;;;;;;10.73;79.72;101414.77;100803;1290;139340;-79
2022/10/28 00:57:24;;;;;;;29.60;22.70;;;;;;;10.82;78.81;101419.10;100947;1290;97653;-80
2022/10/28 00:59:54;;;;;;;30.10;23.60;;;;;;;10.88;78.63;101416.39;101183;1292;107347;-79
2022/10/28 01:02:21;;;;;;;33.30;22.80;;;;;;;10.96;78.53;101415.23;101156;1287;139910;-80
2022/10/28 01:04:50;;;;;;;37.20;22.70;;;;;;;10.96;78.55;101412.91;100865;1294;96054;-80
2022/10/28 01:07:18;;;;;;;39.20;20.90;;;;;;;10.94;78.63;101412.94;100849;1307;140158;-81
2022/10/28 01:09:46;;;;;;;38.50;22.00;;;;;;;10.93;78.54;101412.42;100886;1290;97987;-81
2022/10/28 01:12:20;;;;;;;33.50;21.00;;;;;;;10.86;78.39;101412.84;101501;1313;107513;-80
2022/10/28 01:15:08;;;;;;;33.50;22.90;;;;;;;10.82;78.37;101412.20;101347;1313;139202;-81
2022/10/28 01:18:13;;;;;;;36.60;23.00;;;;;;;10.83;78.57;101414.14;100956;1283;95345;-81
2022/10/28 01:21:01;;;;;;;31.60;21.60;;;;;;;10.80;78.13;101410.44;102261;1287;139490;-82
2022/10/28 01:23:51;;;;;;;32.70;21.30;;;;;;;10.62;78.13;101406.54;102330;1287;98497;-81
2022/10/28 01:26:29;;;;;;;38.10;20.40;;;;;;;10.54;79.11;101404.31;101638;1294;139069;-81
2022/10/28 01:29:40;;;;;;;33.10;21.20;;;;;;;10.56;79.36;101407.86;101463;1293;96199;-81
2022/10/28 01:32:32;;;;;;;36.30;19.80;;;;;;;10.54;79.29;101399.52;101560;1292;139562;-81
2022/10/28 01:35:12;;;;;;;27.50;21.40;;;;;;;10.55;79.73;101401.98;101208;1290;107442;-82
2022/10/28 01:38:08;;;;;;;28.80;21.30;;;;;;;10.67;79.73;101403.48;101126;1292;140590;-81
2022/10/28 01:41:13;;;;;;;32.70;20.80;;;;;;;10.77;79.33;101401.59;101007;1286;108097;-81
2022/10/28 01:44:16;;;;;;;31.90;20.80;;;;;;;10.80;79.21;101400.13;101122;1301;140274;-81
2022/10/28 01:46:48;;;;;;;34.80;19.20;;;;;;;10.85;78.65;101397.40;101120;1299;95364;-82
2022/10/28 01:49:25;;;;;;;29.20;20.30;;;;;;;10.74;78.47;101396.11;101209;1287;139570;-82
2022/10/28 01:51:57;;;;;;;31.70;20.60;;;;;;;10.64;78.63;101390.54;101156;1287;97876;-79
2022/10/28 01:54:30;;;;;;;32.50;21.20;;;;;;;10.65;79.33;101399.23;100917;1287;107219;-81
2022/10/28 01:57:02;;;;;;;42.70;21.70;;;;;;;10.71;79.20;101397.57;101200;1294;139083;-82
2022/10/28 01:59:32;;;;;;;29.20;20.70;;;;;;;10.76;78.98;101400.00;101217;1313;95703;-82
2022/10/28 02:02:00;;;;;;;33.90;20.40;;;;;;;10.82;78.77;101400.27;101050;1312;138853;-81
2022/10/28 02:04:29;;;;;;;38.10;21.30;;;;;;;10.83;78.35;101401.17;101334;1291;97875;-81
2022/10/28 02:06:59;;;;;;;39.90;21.30;;;;;;;10.72;78.19;101398.98;101012;1290;139056;-82
2022/10/28 02:09:39;;;;;;;30.10;21.80;;;;;;;10.64;78.37;101398.35;101249;1293;95289;-81
2022/10/28 02:12:31;;;;;;;24.40;21.40;;;;;;;10.64;78.62;101398.35;101544;1298;95305;-82
2022/10/28 02:15:22;;;;;;;28.50;21.50;;;;;;;10.69;78.54;101393.85;101152;1313;138919;-83
2022/10/28 02:18:06;;;;;;;26.40;21.70;;;;;;;10.68;78.17;101391.38;101252;1292;97903;-82
2022/10/28 02:21:05;;;;;;;40.10;22.10;;;;;;;10.67;77.86;101388.02;101120;1306;138813;-82
2022/10/28 02:23:36;;;;;;;33.60;21.30;;;;;;;10.49;77.99;101375.78;101692;1291;95735;-81
2022/10/28 02:26:36;;;;;;;24.00;20.10;;;;;;;10.35;78.44;101375.72;102353;1287;139166;-81
2022/10/28 02:29:24;;;;;;;29.60;18.80;;;;;;;10.31;78.89;101373.79;102704;1300;108422;-82
2022/10/28 02:31:57;;;;;;;28.20;20.00;;;;;;;10.35;79.39;101367.72;102052;1306;139034;-82
2022/10/28 02:34:31;;;;;;;26.30;19.40;;;;;;;10.41;79.28;101369.81;102113;1305;107436;-83
2022/10/28 02:37:05;;;;;;;24.80;19.20;;;;;;;10.41;79.07;101370.36;102322;1301;139571;-81
2022/10/28 02:39:40;;;;;;;25.10;19.20;;;;;;;10.40;79.03;101362.73;103199;1292;95187;-82
2022/10/28 02:42:18;;;;;;;27.40;19.10;;;;;;;10.37;78.87;101355.83;103083;1291;107181;-81
2022/10/28 02:44:58;;;;;;;23.40;19.00;;;;;;;10.35;78.92;101351.41;101773;1294;139202;-81
2022/10/28 02:47:33;;;;;;;23.20;18.40;;;;;;;10.30;78.60;101345.21;101683;1290;107416;-83
2022/10/28 02:50:07;;;;;;;28.80;19.50;;;;;;;10.19;78.90;101339.45;102603;1294;137958;-83
2022/10/28 02:52:35;;;;;;;24.30;19.40;;;;;;;10.20;79.63;101341.41;103052;1287;96479;-82
2022/10/28 02:55:05;;;;;;;30.20;19.70;;;;;;;10.27;79.81;101341.52;103209;1294;140739;-82
2022/10/28 02:57:38;;;;;;;25.90;20.30;;;;;;;10.29;79.32;101343.09;103358;1288;96663;-82
2022/10/28 03:00:10;;;;;;;24.90;19.10;;;;;;;10.31;79.30;101339.17;103358;1301;106504;-83
2022/10/28 03:02:38;;;;;;;28.20;19.60;;;;;;;10.27;79.18;101337.27;102867;1313;139025;-81
2022/10/28 03:05:07;;;;;;;23.50;18.80;;;;;;;10.28;79.48;101336.19;103259;1287;95162;-81
2022/10/28 03:07:35;;;;;;;22.00;19.60;;;;;;;10.38;79.47;101340.21;101891;1317;139081;-81
2022/10/28 03:10:03;;;;;;;24.90;20.80;;;;;;;10.46;79.10;101340.83;103054;1290;97219;-81
2022/10/28 03:12:31;;;;;;;21.20;18.90;;;;;;;10.51;78.52;101344.85;102746;1287;108319;-81
2022/10/28 03:15:00;;;;;;;23.90;19.80;;;;;;;10.54;78.29;101349.27;101436;1294;138979;-81
2022/10/28 03:17:28;;;;;;;20.50;17.70;;;;;;;10.55;77.80;101347.66;102907;1290;95153;-81
2022/10/28 03:19:56;;;;;;;19.60;17.50;;;;;;;10.45;77.30;101345.45;104242;1300;137797;-82
2022/10/28 03:22:24;;;;;;;21.10;18.60;;;;;;;10.28;77.48;101342.76;103806;1302;97136;-82
2022/10/28 03:24:55;;;;;;;21.70;18.60;;;;;;;10.16;77.89;101346.95;103031;1293;139183;-82
2022/10/28 03:27:26;;;;;;;22.20;19.10;;;;;;;10.08;78.25;101346.14;103205;1297;97574;-82
2022/10/28 03:29:54;;;;;;;21.20;18.40;;;;;;;9.99;78.50;101338.95;102813;1302;95244;-82
2022/10/28 03:32:22;;;;;;;22.20;19.70;;;;;;;9.94;78.93;101341.46;102554;1308;137617;-82
2022/10/28 03:34:50;;;;;;;21.60;19.30;;;;;;;9.94;79.04;101341.83;102172;1308;97882;-82
2022/10/28 03:37:17;;;;;;;22.30;19.90;;;;;;;9.95;79.33;101339.86;103582;1287;140297;-81
2022/10/28 03:39:46;;;;;;;24.00;19.80;;;;;;;10.02;79.55;101341.75;103517;1301;95582;-82
2022/10/28 03:42:13;;;;;;;24.10;20.80;;;;;;;10.12;79.13;101341.31;102431;1312;95888;-82
2022/10/28 03:44:41;;;;;;;24.40;21.10;;;;;;;10.11;78.47;101336.52;102071;1283;139083;-81
2022/10/28 03:47:09;;;;;;;24.00;21.20;;;;;;;10.00;78.62;101332.19;103547;1290;97993;-81
2022/10/28 03:49:37;;;;;;;22.70;19.80;;;;;;;9.96;79.02;101330.09;103521;1310;137858;-82
2022/10/28 03:52:05;;;;;;;23.90;20.90;;;;;;;10.02;78.94;101326.84;103459;1311;94324;-81
2022/10/28 03:54:34;;;;;;;23.40;20.70;;;;;;;10.01;78.70;101325.26;102002;1303;95343;-82
2022/10/28 03:57:01;;;;;;;24.40;19.50;;;;;;;9.97;78.78;101325.48;102613;1287;139321;-83
2022/10/28 03:59:29;;;;;;;24.20;19.50;;;;;;;9.99;78.64;101322.80;101835;1313;96562;-83
2022/10/28 04:01:57;;;;;;;23.00;20.30;;;;;;;10.01;78.66;101317.81;102383;1290;138872;-81
2022/10/28 04:04:25;;;;;;;26.10;22.80;;;;;;;10.06;78.32;101317.94;103273;1315;95059;-81
2022/10/28 04:06:57;;;;;;;23.70;21.00;;;;;;;10.09;77.88;101319.52;102729;1308;137930;-83
2022/10/28 04:09:25;;;;;;;22.50;19.40;;;;;;;10.08;77.76;101320.77;102910;1307;108873;-83
2022/10/28 04:11:53;;;;;;;25.20;21.40;;;;;;;10.09;77.91;101322.00;102623;1310;97971;-82
2022/10/28 04:14:21;;;;;;;24.80;21.20;;;;;;;10.10;77.67;101329.80;103981;1290;137861;-81
2022/10/28 04:16:48;;;;;;;25.20;22.20;;;;;;;10.09;77.69;101326.61;103999;1301;94289;-83
2022/10/28 04:19:16;;;;;;;24.70;21.20;;;;;;;10.05;77.74;101326.64;103595;1289;138066;-82
2022/10/28 04:21:44;;;;;;;24.60;21.50;;;;;;;10.01;77.83;101327.40;104015;1303;106460;-82
2022/10/28 04:24:12;;;;;;;24.60;21.70;;;;;;;10.02;77.58;101329.86;103583;1301;96849;-82
2022/10/28 04:26:42;;;;;;;24.80;21.50;;;;;;;9.98;77.32;101328.83;102988;1305;138245;-83
2022/10/28 04:29:10;;;;;;;25.00;22.30;;;;;;;9.84;77.61;101327.18;102589;1297;96142;-82
2022/10/28 04:31:37;;;;;;;24.00;20.80;;;;;;;9.73;78.38;101327.45;103815;1293;139083;-82
2022/10/28 04:34:05;;;;;;;24.20;21.60;;;;;;;9.74;78.38;101326.38;103778;1304;107788;-82
2022/10/28 04:36:33;;;;;;;26.30;21.10;;;;;;;9.79;78.35;101321.37;103366;1300;97751;-82
2022/10/28 04:39:01;;;;;;;26.30;22.20;;;;;;;9.79;78.14;101319.59;102195;1294;138950;-82
2022/10/28 04:41:29;;;;;;;24.30;21.30;;;;;;;9.69;78.47;101319.85;104085;1294;95152;-82
2022/10/28 04:43:57;;;;;;;24.20;21.60;;;;;;;9.72;78.62;101319.83;104322;1302;138834;-82
2022/10/28 04:46:25;;;;;;;23.80;20.70;;;;;;;9.75;78.08;101318.39;104257;1301;107507;-82
2022/10/28 04:48:53;;;;;;;21.50;19.10;;;;;;;9.77;77.98;101312.52;104380;1304;138074;-81
2022/10/28 04:51:23;;;;;;;23.00;19.40;;;;;;;9.81;77.76;101314.26;104475;1285;106985;-82
2022/10/28 04:53:51;;;;;;;21.60;18.60;;;;;;;9.81;77.59;101306.81;104518;1290;92739;-82
2022/10/28 04:56:25;;;;;;;21.80;19.10;;;;;;;9.70;77.23;101299.98;103858;1290;139332;-82
2022/10/28 04:58:53;;;;;;;25.20;21.20;;;;;;;9.57;77.41;101301.67;102935;1294;108605;-82
2022/10/28 05:01:21;;;;;;;24.00;20.50;;;;;;;9.49;78.06;101300.32;102126;1286;139158;-82
2022/10/28 05:03:50;;;;;;;24.80;20.90;;;;;;;9.43;78.69;101300.36;102169;1291;108802;-83
2022/10/28 05:06:18;;;;;;;26.30;20.90;;;;;;;9.41;79.03;101302.32;102103;1286;95318;-82
2022/10/28 05:08:46;;;;;;;25.00;20.40;;;;;;;9.38;79.37;101303.05;103546;1290;139771;-82
2022/10/28 05:11:15;;;;;;;23.30;20.20;;;;;;;9.45;79.20;101304.78;104173;1291;107768;-82
2022/10/28 05:13:44;;;;;;;26.60;20.60;;;;;;;9.49;78.64;101302.10;102963;1290;139719;-83
2022/10/28 05:16:12;;;;;;;24.30;20.50;;;;;;;9.45;78.64;101300.72;103164;1306;106169;-82
2022/10/28 05:18:40;;;;;;;27.20;20.20;;;;;;;9.47;78.67;101298.20;101625;1289;138014;-87
2022/10/28 05:21:09;;;;;;;23.20;18.90;;;;;;;9.43;78.75;101293.29;101635;1295;95548;-85
2022/10/28 05:23:37;;;;;;;23.50;18.60;;;;;;;9.36;79.54;101298.99;101816;1297;108337;-84
2022/10/28 05:26:06;;;;;;;21.80;18.30;;;;;;;9.27;80.51;101293.56;101198;1299;139326;-88
2022/10/28 05:28:34;;;;;;;20.90;17.50;;;;;;;9.22;81.08;101293.23;101924;1295;107637;-88
2022/10/28 05:31:04;;;;;;;21.30;16.70;;;;;;;9.24;81.19;101291.28;101584;1298;139494;-85
2022/10/28 05:33:32;;;;;;;20.20;16.30;;;;;;;9.33;80.69;101284.84;101619;1304;95290;-85
2022/10/28 05:36:03;;;;;;;18.70;14.70;;;;;;;9.36;80.62;101281.64;101347;1306;109361;-86
2022/10/28 05:38:31;;;;;;;18.30;15.10;;;;;;;9.44;80.47;101280.69;101667;1305;139683;-88
2022/10/28 05:41:02;;;;;;;18.00;15.20;;;;;;;9.50;80.31;101275.85;101692;1289;107565;-87
2022/10/28 05:43:30;;;;;;;18.00;14.20;;;;;;;9.61;80.64;101279.84;101663;1305;140004;-89
2022/10/28 05:46:02;;;;;;;19.60;14.90;;;;;;;9.71;79.85;101281.35;101766;1295;95163;-86
2022/10/28 05:48:30;;;;;;;17.50;14.20;;;;;;;9.78;79.54;101278.81;101676;1298;108075;-86
2022/10/28 05:51:00;;;;;;;18.70;15.60;;;;;;;9.75;79.53;101276.70;104670;1297;139217;-87
2022/10/28 05:53:28;;;;;;;19.70;16.40;;;;;;;9.73;80.03;101276.55;104601;1299;108601;-86
2022/10/28 05:55:58;;;;;;;20.30;16.40;;;;;;;9.75;80.33;101271.57;104779;1293;139215;-86
2022/10/28 05:58:26;;;;;;;19.40;16.40;;;;;;;9.76;80.50;101269.61;104773;1291;92845;-85
2022/10/28 06:00:57;;;;;;;20.60;16.20;;;;;;;9.74;80.52;101270.16;104800;1297;139041;-86
2022/10/28 06:03:28;;;;;;;19.90;16.50;;;;;;;9.69;80.88;101268.78;104928;1290;98412;-86
2022/10/28 06:05:58;;;;;;;18.80;16.00;;;;;;;9.67;81.46;101268.81;104757;1298;109019;-85
2022/10/28 06:08:26;;;;;;;20.60;16.70;;;;;;;9.66;81.79;101271.47;104783;1287;139490;-86
2022/10/28 06:10:54;;;;;;;21.30;16.70;;;;;;;9.68;81.85;101271.27;104784;1299;93269;-86
2022/10/28 06:13:22;;;;;;;22.20;16.30;;;;;;;9.67;81.92;101273.76;104792;1295;139243;-85
2022/10/28 06:15:51;;;;;;;22.30;17.00;;;;;;;9.69;82.16;101271.45;104670;1298;98044;-85
2022/10/28 06:18:20;;;;;;;22.70;17.30;;;;;;;9.73;82.28;101271.23;104760;1280;107847;-85
2022/10/28 06:21:25;;;;;;;23.70;17.60;;;;;;;9.77;82.47;101268.89;98721;1307;634182;-67
2022/10/28 06:23:53;;;;;;;24.70;19.00;;;;;;;9.75;82.61;101268.38;100170;1298;94384;-68
2022/10/28 06:26:21;;;;;;;23.00;18.60;;;;;;;9.77;82.87;101266.23;99765;1298;138034;-68
2022/10/28 06:28:49;;;;;;;23.70;18.40;;;;;;;9.79;82.82;101268.16;99557;1304;106076;-67
2022/10/28 06:31:16;;;;;;;23.30;18.80;;;;;;;9.80;82.86;101266.02;99491;1310;138316;-68
2022/10/28 06:33:44;;;;;;;24.90;18.10;;;;;;;9.83;83.02;101263.16;99564;1302;107580;-67
2022/10/28 06:36:12;;;;;;;26.10;19.00;;;;;;;9.84;83.14;101263.68;99587;1316;106448;-67
2022/10/28 06:38:40;;;;;;;25.00;18.60;;;;;;;9.87;83.09;101266.14;101077;1288;141532;-73
2022/10/28 06:41:08;;;;;;;25.20;18.50;;;;;;;9.90;83.05;101267.17;100451;1294;105221;-74
2022/10/28 06:43:36;;;;;;;23.60;19.10;;;;;;;9.91;83.18;101274.44;100245;1300;138655;-73
2022/10/28 06:46:04;;;;;;;25.20;17.70;;;;;;;9.97;83.36;101277.39;100230;1301;107853;-74
2022/10/28 06:48:32;;;;;;;23.70;18.70;;;;;;;10.08;83.57;101277.46;101089;1292;95194;-74
2022/10/28 06:51:00;;;;;;;25.60;17.30;;;;;;;10.18;83.43;101278.60;101005;1308;140514;-74
2022/10/28 06:53:28;;;;;;;26.80;18.00;;;;;;;10.25;83.55;101277.99;100911;1297;105715;-75
2022/10/28 06:55:57;;;;;;;24.40;18.60;;;;;;;10.32;83.67;101274.19;101094;1284;140292;-76
2022/10/28 06:58:25;;;;;;;24.70;17.80;;;;;;;10.42;83.89;101277.66;101591;1294;106775;-74
2022/10/28 07:00:56;;;;;;;24.20;18.30;;;;;;;10.52;83.82;101279.86;100878;1291;138972;-75
2022/10/28 07:03:22;;;;;;;22.30;17.30;;;;;;;10.63;83.77;101282.02;101211;1292;94721;-75
2022/10/28 07:05:50;;;;;;;23.40;18.40;;;;;;;10.74;83.50;101280.48;101002;1290;95175;-75
2022/10/28 07:08:18;;;;;;;23.80;18.80;;;;;;;10.86;83.50;101285.82;100953;1291;139006;-76
2022/10/28 07:10:57;;;;;;;26.20;19.90;;;;;;;10.97;83.21;101289.77;101006;1299;107534;-76
2022/10/28 07:13:26;;;;;;;24.90;19.60;;;;;;;11.07;83.07;101287.85;101083;1298;140608;-76
2022/10/28 07:15:55;;;;;;;23.10;18.30;;;;;;;11.16;82.90;101290.03;100996;1314;94477;-77
2022/10/28 07:18:26;;;;;;;24.50;19.00;;;;;;;11.23;82.51;101283.36;100874;1307;105342;-75
2022/10/28 07:20:57;;;;;;;23.60;19.30;;;;;;;11.26;82.64;101281.71;100855;1308;140371;-75
2022/10/28 07:23:25;;;;;;;22.60;18.70;;;;;;;11.32;82.80;101279.12;101119;1292;109355;-74
2022/10/28 07:25:55;;;;;;;25.50;19.70;;;;;;;11.43;82.65;101276.30;101152;1290;140841;-75
2022/10/28 07:28:25;;;;;;;25.70;19.70;;;;;;;11.56;82.76;101270.76;101560;1297;94416;-75
2022/10/28 07:30:53;;;;;;;25.90;20.90;;;;;;;11.63;82.87;101267.61;101202;1311;107486;-75
2022/10/28 07:33:23;;;;;;;27.30;20.60;;;;;;;11.68;82.87;101268.77;101079;1306;100171;-75
2022/10/28 07:35:50;;;;;;;26.00;20.80;;;;;;;11.70;82.84;101264.66;100863;1307;109889;-74
2022/10/28 07:38:18;;;;;;;29.00;22.60;;;;;;;11.73;82.87;101260.52;100853;1294;139609;-74
2022/10/28 07:40:47;;;;;;;28.90;22.80;;;;;;;11.79;82.80;101260.41;101167;1311;94153;-73
2022/10/28 07:43:15;;;;;;;28.90;23.90;;;;;;;11.88;83.06;101265.05;100853;1309;140853;-77
2022/10/28 07:45:43;;;;;;;31.70;23.80;;;;;;;11.96;82.87;101262.45;101106;1314;97634;-80
2022/10/28 07:48:11;;;;;;;31.90;25.30;;;;;;;12.02;82.84;101265.55;101143;1292;108782;-76
2022/10/28 07:50:40;;;;;;;32.90;25.40;;;;;;;12.05;82.57;101263.18;101289;1301;141333;-76
2022/10/28 07:53:08;;;;;;;33.60;26.40;;;;;;;12.09;82.38;101260.61;101362;1315;94335;-77
2022/10/28 07:55:35;;;;;;;33.90;25.70;;;;;;;12.12;82.24;101256.64;100801;1311;140853;-77
2022/10/28 07:58:04;;;;;;;34.00;25.90;;;;;;;12.25;82.27;101253.73;100951;1294;98438;-77
2022/10/28 08:00:32;;;;;;;34.20;27.30;;;;;;;12.36;82.06;101253.34;101604;1301;109524;-76
2022/10/28 08:03:02;;;;;;;33.50;27.00;;;;;;;12.47;81.97;101254.17;101002;1291;139177;-77
2022/10/28 08:05:29;;;;;;;35.20;26.00;;;;;;;12.60;81.86;101251.95;100969;1314;94450;-74
2022/10/28 08:08:00;;;;;;;33.20;25.90;;;;;;;12.72;82.05;101247.07;101222;1294;139925;-75
2022/10/28 08:10:28;;;;;;;34.50;27.50;;;;;;;12.83;81.60;101245.75;101625;1300;97828;-75
2022/10/28 08:12:59;;;;;;;35.20;27.40;;;;;;;12.87;80.96;101241.73;101524;1301;139055;-75
2022/10/28 08:15:28;;;;;;;34.30;26.80;;;;;;;12.94;80.97;101239.81;101195;1298;94556;-75
2022/10/28 08:17:57;;;;;;;35.20;27.30;;;;;;;12.97;80.64;101244.54;100988;1301;94334;-76
2022/10/28 08:20:24;;;;;;;34.80;27.40;;;;;;;13.00;80.51;101245.02;101192;1307;139821;-76
2022/10/28 08:22:52;;;;;;;34.30;26.70;;;;;;;13.03;80.48;101245.30;101174;1314;99607;-75
2022/10/28 08:25:20;;;;;;;35.30;26.70;;;;;;;13.13;80.51;101244.02;100835;1296;141030;-75
2022/10/28 08:27:48;;;;;;;32.10;25.40;;;;;;;13.26;80.43;101235.86;100871;1316;95144;-76
2022/10/28 08:30:15;;;;;;;33.10;26.00;;;;;;;13.42;80.11;101236.20;100912;1307;94799;-76
2022/10/28 08:32:43;;;;;;;30.20;23.50;;;;;;;13.63;80.05;101231.77;100871;1316;141006;-76
2022/10/28 08:35:11;;;;;;;31.00;23.10;;;;;;;13.83;79.66;101231.26;101035;1308;98288;-76
2022/10/28 08:37:39;;;;;;;29.90;22.70;;;;;;;13.96;79.12;101229.11;100848;1300;141706;-75
2022/10/28 08:40:10;;;;;;;31.30;23.00;;;;;;;14.00;78.65;101228.11;101023;1294;94343;-74
2022/10/28 08:42:41;;;;;;;29.00;22.20;;;;;;;14.03;78.24;101232.33;101181;1291;94312;-76
2022/10/28 08:45:41;;;;;;;29.80;23.00;;;;;;;14.05;78.29;101233.16;101051;1314;139094;-76
2022/10/28 08:48:17;;;;;;;31.20;23.30;;;;;;;14.10;78.25;101233.02;100984;1298;98343;-76
2022/10/28 08:50:52;;;;;;;31.30;24.40;;;;;;;14.13;77.92;101228.48;101496;1288;140533;-77
2022/10/28 08:53:27;;;;;;;29.80;24.00;;;;;;;14.17;77.80;101221.22;102125;1297;94327;-77
2022/10/28 08:56:06;;;;;;;31.30;24.00;;;;;;;14.22;77.82;101218.41;101876;1299;141718;-77
2022/10/28 08:58:37;;;;;;;32.00;24.10;;;;;;;14.29;77.82;101216.05;101597;1286;105297;-77
2022/10/28 09:01:12;;;;;;;31.50;23.50;;;;;;;14.40;77.59;101216.11;101584;1291;98979;-75
2022/10/28 09:03:44;;;;;;;30.90;24.30;;;;;;;14.68;77.78;101219.38;101246;1305;106933;-77
2022/10/28 09:06:12;;;;;;;29.50;23.00;;;;;;;15.14;77.01;101211.77;101805;1305;141025;-74
2022/10/28 09:08:43;;;;;;;26.80;21.30;;;;;;;15.68;75.22;101217.27;101192;1312;94253;-74
2022/10/28 09:11:23;;;;;;;25.80;20.10;;;;;;;17.05;70.55;101218.48;101491;1299;140065;-74
2022/10/28 09:14:20;;;;;;;24.80;20.30;;;;;;;18.35;67.24;101214.23;101358;1309;99483;-74
2022/10/28 09:17:10;;;;;;;25.60;20.10;;;;;;;19.27;64.89;101209.93;101111;1312;140354;-76
2022/10/28 09:19:48;;;;;;;28.60;19.60;;;;;;;19.43;64.75;101214.20;101167;1297;94332;-75
2022/10/28 09:22:56;;;;;;;22.40;19.00;;;;;;;20.17;61.90;101215.98;101188;1306;140079;-76
2022/10/28 09:25:47;;;;;;;24.50;19.40;;;;;;;20.14;61.35;101215.77;101323;1307;107643;-77
2022/10/28 09:28:57;;;;;;;24.90;19.50;;;;;;;19.62;62.56;101212.33;101173;1313;140779;-76
2022/10/28 09:31:39;;;;;;;25.00;19.30;;;;;;;19.17;63.30;101213.33;100072;1323;108592;-74
2022/10/28 09:34:37;;;;;;;26.10;19.30;;;;;;;18.64;64.34;101217.09;101155;1313;141161;-74
2022/10/28 09:37:18;;;;;;;26.50;20.50;;;;;;;18.32;65.26;101215.50;101452;1300;95739;-76
2022/10/28 09:39:51;;;;;;;26.40;20.40;;;;;;;18.02;65.60;101210.91;101460;1314;107793;-76
2022/10/28 09:42:34;;;;;;;25.50;20.00;;;;;;;17.91;66.15;101206.17;101490;1311;140435;-76
2022/10/28 09:45:05;;;;;;;27.70;20.10;;;;;;;17.74;66.53;101208.70;101655;1304;108271;-78
2022/10/28 09:47:40;;;;;;;25.50;20.10;;;;;;;17.48;67.12;101207.45;101692;1303;139895;-83
2022/10/28 09:50:22;;;;;;;24.20;19.80;;;;;;;17.36;67.98;101202.55;102085;1307;94581;-84
2022/10/28 09:52:54;;;;;;;25.20;19.80;;;;;;;17.24;67.93;101203.80;102112;1290;140431;-84
2022/10/28 09:55:22;;;;;;;26.00;19.70;;;;;;;17.05;68.57;101202.05;102491;1297;99308;-83
2022/10/28 09:57:50;;;;;;;26.20;20.20;;;;;;;16.94;68.99;101204.27;102227;1303;107149;-83
2022/10/28 10:00:19;;;;;;;26.30;20.00;;;;;;;16.87;69.58;101203.07;102203;1295;140953;-83
2022/10/28 10:02:52;;;;;;;26.40;20.80;;;;;;;16.79;70.40;101206.45;102125;1309;94198;-81
2022/10/28 10:05:19;;;;;;;28.00;20.60;;;;;;;16.76;70.46;101204.23;102223;1313;138389;-78
2022/10/28 10:08:05;;;;;;;24.90;19.70;;;;;;;16.78;70.97;101205.21;102205;1305;97614;-80
2022/10/28 10:10:44;;;;;;;25.80;18.90;;;;;;;16.80;70.82;101200.64;102133;1309;142054;-79
2022/10/28 10:13:40;;;;;;;27.60;19.10;;;;;;;16.79;70.92;101196.05;102237;1309;94661;-79
2022/10/28 10:16:19;;;;;;;25.30;18.60;;;;;;;16.81;70.97;101186.80;102266;1306;140263;-79
2022/10/28 10:18:50;;;;;;;24.50;19.20;;;;;;;16.74;71.21;101183.67;102042;1312;107165;-80
2022/10/28 10:21:48;;;;;;;25.80;18.90;;;;;;;16.74;71.48;101186.54;102145;1290;98593;-78
2022/10/28 10:24:30;;;;;;;24.30;17.40;;;;;;;16.71;71.52;101192.95;101852;1297;139715;-78
2022/10/28 10:27:01;;;;;;;25.40;17.40;;;;;;;16.68;71.37;101190.36;102110;1307;94280;-80
2022/10/28 10:29:30;;;;;;;30.30;18.90;;;;;;;16.69;71.60;101186.71;101933;1310;140580;-79
2022/10/28 10:32:14;;;;;;;25.90;17.40;;;;;;;16.69;71.44;101188.17;101832;1304;107053;-78
2022/10/28 10:34:55;;;;;;;22.50;17.00;;;;;;;16.68;71.46;101184.42;101804;1312;139337;-78
2022/10/28 10:37:23;;;;;;;24.20;16.60;;;;;;;16.68;71.09;101183.02;101998;1290;108087;-79
2022/10/28 10:40:25;;;;;;;23.80;17.70;;;;;;;16.68;71.42;101180.66;102085;1303;94803;-78
2022/10/28 10:43:17;;;;;;;22.40;16.40;;;;;;;16.68;71.92;101173.89;102008;1311;94348;-80
2022/10/28 10:46:10;;;;;;;23.30;17.30;;;;;;;16.70;71.42;101166.98;102028;1305;107678;-79
2022/10/28 10:48:38;;;;;;;22.30;16.00;;;;;;;16.75;71.63;101165.89;101951;1307;99643;-78
2022/10/28 10:51:26;;;;;;;21.10;15.60;;;;;;;16.81;71.60;101157.94;101919;1310;108673;-77
2022/10/28 10:53:56;;;;;;;21.20;14.70;;;;;;;16.85;71.67;101154.55;101907;1290;140119;-78
2022/10/28 10:56:28;;;;;;;20.80;14.50;;;;;;;16.89;71.68;101151.54;101981;1311;94301;-79
2022/10/28 10:59:29;;;;;;;22.90;14.40;;;;;;;16.93;71.21;101151.59;101920;1296;140820;-78
2022/10/28 11:01:58;;;;;;;20.20;14.20;;;;;;;16.95;71.34;101146.66;101966;1311;97072;-79
2022/10/28 11:04:29;;;;;;;18.80;13.80;;;;;;;16.94;70.61;101150.26;102068;1297;141115;-79
2022/10/28 11:06:57;;;;;;;19.10;14.30;;;;;;;16.95;70.21;101146.45;102200;1307;94290;-79
2022/10/28 11:09:27;;;;;;;19.80;13.20;;;;;;;16.97;70.47;101135.98;102165;1308;94262;-79
2022/10/28 11:11:55;;;;;;;19.50;13.10;;;;;;;17.00;70.27;101137.46;101967;1299;140754;-79
2022/10/28 11:14:29;;;;;;;18.10;12.10;;;;;;;17.02;69.92;101130.21;102037;1296;97549;-79
2022/10/28 11:17:02;;;;;;;17.50;12.10;;;;;;;17.07;69.74;101130.73;102066;1310;141580;-80
2022/10/28 11:19:36;;;;;;;18.40;12.50;;;;;;;17.12;70.00;101123.69;102031;1311;94866;-78
2022/10/28 11:22:28;;;;;;;16.80;12.00;;;;;;;17.17;70.00;101120.05;102095;1290;94416;-80
2022/10/28 11:25:05;;;;;;;17.00;11.70;;;;;;;17.19;69.93;101115.84;102116;1312;106516;-78
2022/10/28 11:28:10;;;;;;;16.40;11.40;;;;;;;17.26;70.14;101119.34;102009;1311;98487;-79